Time;durP1;ratioP1;P1;durP2;ratioP2;P2;SDS_P1;SDS_P2;PMS_P1;PMS_P2;Temp;Humidity;BMP_temperature;BMP_pressure;BME280_temperature;BME280_humidity;BME280_pressure;Samples;Min_cycle;Max_cycle;Signal;HPM_P1;HPM_P2
2022/10/15 00:00:53;;;;;;;0.05;0.05;;;;;;;;;;4993254;28;20508;-89
2022/10/15 00:03:19;;;;;;;0.00;0.00;;;;;;;;;;4993012;28;20043;-89
2022/10/15 00:05:45;;;;;;;0.00;0.00;;;;;;;;;;4992959;28;20049;-89
2022/10/15 00:08:12;;;;;;;0.00;0.00;;;;;;;;;;4992891;28;20038;-89
2022/10/15 00:10:38;;;;;;;0.00;0.00;;;;;;;;;;4993218;28;20069;-89
2022/10/15 00:13:04;;;;;;;0.00;0.00;;;;;;;;;;4992878;28;20474;-89
2022/10/15 00:15:30;;;;;;;0.00;0.00;;;;;;;;;;4976835;28;20635;-89
2022/10/15 00:17:56;;;;;;;0.00;0.00;;;;;;;;;;4992807;28;20129;-88
2022/10/15 00:20:22;;;;;;;0.00;0.00;;;;;;;;;;4992930;28;20127;-88
2022/10/15 00:22:48;;;;;;;0.00;0.00;;;;;;;;;;4992815;28;20113;-89
2022/10/15 00:25:14;;;;;;;0.00;0.00;;;;;;;;;;4992980;28;20043;-89
2022/10/15 00:27:40;;;;;;;0.00;0.00;;;;;;;;;;4992862;28;20505;-88
2022/10/15 00:30:06;;;;;;;0.00;0.00;;;;;;;;;;4992876;28;20038;-89
2022/10/15 00:32:32;;;;;;;0.00;0.00;;;;;;;;;;4992518;28;20039;-88
2022/10/15 00:34:58;;;;;;;0.00;0.00;;;;;;;;;;4982625;28;20038;-88
2022/10/15 00:37:25;;;;;;;0.00;0.00;;;;;;;;;;4976385;28;20045;-87
2022/10/15 00:39:51;;;;;;;0.20;0.10;;;;;;;;;;4960491;28;20042;-89
2022/10/15 00:42:17;;;;;;;0.00;0.00;;;;;;;;;;4976564;28;20065;-88
2022/10/15 00:44:47;;;;;;;0.00;0.00;;;;;;;;;;4960312;28;20481;-88
2022/10/15 00:47:36;;;;;;;0.00;0.00;;;;;;;;;;4973002;28;20051;-89
2022/10/15 00:50:04;;;;;;;0.00;0.00;;;;;;;;;;4965949;28;20046;-87
2022/10/15 00:52:54;;;;;;;1.20;0.10;;;;;;;;;;4973511;28;20086;-87
2022/10/15 00:55:31;;;;;;;0.00;0.00;;;;;;;;;;4957439;28;20047;-90
2022/10/15 00:58:00;;;;;;;0.00;0.00;;;;;;;;;;4973330;28;20046;-89
2022/10/15 01:00:26;;;;;;;0.00;0.00;;;;;;;;;;4973052;28;20126;-90
2022/10/15 01:02:52;;;;;;;0.38;0.15;;;;;;;;;;4973142;28;20525;-87
2022/10/15 01:05:19;;;;;;;0.00;0.00;;;;;;;;;;4973027;28;20411;-89
2022/10/15 01:07:45;;;;;;;0.00;0.00;;;;;;;;;;4973083;28;20085;-87
2022/10/15 01:10:11;;;;;;;0.00;0.00;;;;;;;;;;4973337;28;20046;-89
2022/10/15 01:12:46;;;;;;;0.00;0.00;;;;;;;;;;4973012;28;20039;-88
2022/10/15 01:15:19;;;;;;;0.00;0.00;;;;;;;;;;4972954;28;20042;-89
2022/10/15 01:17:58;;;;;;;0.00;0.00;;;;;;;;;;4957265;28;20502;-88
2022/10/15 01:20:24;;;;;;;0.00;0.00;;;;;;;;;;4957090;28;20039;-87
2022/10/15 01:23:11;;;;;;;0.00;0.00;;;;;;;;;;4973251;28;20043;-89
2022/10/15 01:25:56;;;;;;;0.00;0.00;;;;;;;;;;4976645;28;20113;-90
2022/10/15 01:28:22;;;;;;;0.00;0.00;;;;;;;;;;4976463;28;20043;-88
2022/10/15 01:30:52;;;;;;;0.00;0.00;;;;;;;;;;4960581;28;20547;-89
2022/10/15 01:33:27;;;;;;;0.00;0.00;;;;;;;;;;4976382;28;20053;-89
2022/10/15 01:35:59;;;;;;;0.00;0.00;;;;;;;;;;4976220;28;20125;-88
2022/10/15 01:38:45;;;;;;;0.00;0.00;;;;;;;;;;4975993;28;20074;-88
2022/10/15 01:41:21;;;;;;;0.00;0.00;;;;;;;;;;4976217;28;20047;-90
2022/10/15 01:43:56;;;;;;;0.00;0.00;;;;;;;;;;4975893;28;20406;-89
2022/10/15 01:46:26;;;;;;;0.00;0.00;;;;;;;;;;4957391;28;20066;-89
2022/10/15 01:48:53;;;;;;;0.00;0.00;;;;;;;;;;4978878;28;20053;-90
2022/10/15 01:51:20;;;;;;;0.00;0.00;;;;;;;;;;4963179;28;20062;-87
2022/10/15 01:53:46;;;;;;;0.00;0.00;;;;;;;;;;4979169;28;20038;-90
2022/10/15 01:56:15;;;;;;;0.00;0.00;;;;;;;;;;4963075;28;20047;-88
2022/10/15 01:58:45;;;;;;;0.00;0.00;;;;;;;;;;4978818;28;20046;-90
2022/10/15 02:01:11;;;;;;;0.00;0.00;;;;;;;;;;4979521;28;20047;-89
2022/10/15 02:03:44;;;;;;;0.00;0.00;;;;;;;;;;4979215;28;20096;-89
2022/10/15 02:06:12;;;;;;;0.00;0.00;;;;;;;;;;4963232;28;20097;-88
2022/10/15 02:09:01;;;;;;;0.00;0.00;;;;;;;;;;4962874;28;20445;-87
2022/10/15 02:11:28;;;;;;;0.00;0.00;;;;;;;;;;4979083;28;20034;-88
2022/10/15 02:14:08;;;;;;;0.00;0.00;;;;;;;;;;4962516;28;20145;-89
2022/10/15 02:16:45;;;;;;;0.00;0.00;;;;;;;;;;4962601;28;20046;-89
2022/10/15 02:19:17;;;;;;;0.00;0.00;;;;;;;;;;4978942;28;20114;-88
2022/10/15 02:22:03;;;;;;;0.00;0.00;;;;;;;;;;4962908;28;20038;-89
2022/10/15 02:24:38;;;;;;;0.00;0.00;;;;;;;;;;4962335;28;20108;-89
2022/10/15 02:27:04;;;;;;;;;;;;;;;;;;4979377;28;20381;-89
2022/10/15 02:29:32;;;;;;;0.00;0.00;;;;;;;;;;4962346;28;20016;-88
2022/10/15 02:32:00;;;;;;;0.00;0.00;;;;;;;;;;4978656;28;20104;-89
2022/10/15 02:34:28;;;;;;;0.00;0.00;;;;;;;;;;4962281;28;20134;-89
2022/10/15 02:36:56;;;;;;;0.00;0.00;;;;;;;;;;4978339;28;20042;-89
2022/10/15 02:39:26;;;;;;;0.20;0.20;;;;;;;;;;4978288;28;20498;-88
2022/10/15 02:41:56;;;;;;;0.00;0.00;;;;;;;;;;4978343;28;20401;-89
2022/10/15 02:44:22;;;;;;;0.00;0.00;;;;;;;;;;4961892;28;20046;-88
2022/10/15 02:46:48;;;;;;;0.00;0.00;;;;;;;;;;4961812;28;20045;-88
2022/10/15 02:49:14;;;;;;;0.00;0.00;;;;;;;;;;4978121;28;20550;-89
2022/10/15 02:51:40;;;;;;;0.20;0.20;;;;;;;;;;4962203;28;20081;-88
2022/10/15 02:54:07;;;;;;;0.00;0.00;;;;;;;;;;4977802;28;20042;-89
2022/10/15 02:56:33;;;;;;;0.00;0.00;;;;;;;;;;4977995;28;20520;-89
2022/10/15 02:58:59;;;;;;;0.00;0.00;;;;;;;;;;4977781;28;20077;-88
2022/10/15 03:01:25;;;;;;;0.00;0.00;;;;;;;;;;4977891;28;20399;-88
2022/10/15 03:03:51;;;;;;;0.00;0.00;;;;;;;;;;4977612;28;20044;-88
2022/10/15 03:06:17;;;;;;;0.00;0.00;;;;;;;;;;4977944;28;20045;-89
2022/10/15 03:08:43;;;;;;;0.00;0.00;;;;;;;;;;4977693;28;20040;-88
2022/10/15 03:11:09;;;;;;;0.00;0.00;;;;;;;;;;4977962;28;20482;-89
2022/10/15 03:13:36;;;;;;;0.00;0.00;;;;;;;;;;4977458;28;20050;-89
2022/10/15 03:16:05;;;;;;;0.00;0.00;;;;;;;;;;4977628;28;20042;-89
2022/10/15 03:18:31;;;;;;;0.00;0.00;;;;;;;;;;4977696;28;20046;-90
2022/10/15 03:20:58;;;;;;;0.00;0.00;;;;;;;;;;4977681;28;20072;-89
2022/10/15 03:23:24;;;;;;;0.00;0.00;;;;;;;;;;4977827;28;20518;-89
2022/10/15 03:25:51;;;;;;;0.20;0.20;;;;;;;;;;4961323;28;20136;-90
2022/10/15 03:28:17;;;;;;;0.00;0.00;;;;;;;;;;4978173;28;20390;-93
2022/10/15 03:30:43;;;;;;;0.00;0.00;;;;;;;;;;4977931;28;20038;-86
2022/10/15 03:33:10;;;;;;;0.00;0.00;;;;;;;;;;4977896;28;20492;-88
2022/10/15 03:35:36;;;;;;;0.00;0.00;;;;;;;;;;4977209;28;20038;-89
2022/10/15 03:38:02;;;;;;;0.00;0.00;;;;;;;;;;4977552;28;20045;-89
2022/10/15 03:40:28;;;;;;;0.00;0.00;;;;;;;;;;4977283;28;20092;-90
2022/10/15 03:42:55;;;;;;;0.00;0.00;;;;;;;;;;4977105;28;20038;-88
2022/10/15 03:45:21;;;;;;;0.00;0.00;;;;;;;;;;4960746;28;20132;-90
2022/10/15 03:47:47;;;;;;;0.00;0.00;;;;;;;;;;4973552;28;20101;-90
2022/10/15 03:50:13;;;;;;;0.00;0.00;;;;;;;;;;4973950;28;20050;-89
2022/10/15 03:52:39;;;;;;;0.00;0.00;;;;;;;;;;4974236;28;20042;-89
2022/10/15 03:55:06;;;;;;;0.00;0.00;;;;;;;;;;4973504;28;20047;-88
2022/10/15 03:57:32;;;;;;;0.00;0.00;;;;;;;;;;4973764;28;20094;-88
2022/10/15 03:59:58;;;;;;;0.00;0.00;;;;;;;;;;4957903;28;20046;-90
2022/10/15 04:02:24;;;;;;;0.00;0.00;;;;;;;;;;4957943;28;20049;-89
2022/10/15 04:04:54;;;;;;;0.00;0.00;;;;;;;;;;4973774;28;20047;-89
2022/10/15 04:07:20;;;;;;;0.00;0.00;;;;;;;;;;4973835;28;20078;-89
2022/10/15 04:09:46;;;;;;;0.00;0.00;;;;;;;;;;4974032;28;20414;-89
2022/10/15 04:12:12;;;;;;;0.00;0.00;;;;;;;;;;4957810;28;20093;-88
2022/10/15 04:14:39;;;;;;;0.00;0.00;;;;;;;;;;4957778;28;20042;-89
2022/10/15 04:17:05;;;;;;;0.00;0.00;;;;;;;;;;4973796;28;20042;-89
2022/10/15 04:19:31;;;;;;;0.00;0.00;;;;;;;;;;4973653;28;20093;-89
2022/10/15 04:21:57;;;;;;;0.00;0.00;;;;;;;;;;4974524;28;20141;-90
2022/10/15 04:24:23;;;;;;;0.00;0.00;;;;;;;;;;4973555;28;20043;-92
2022/10/15 04:26:49;;;;;;;0.10;0.10;;;;;;;;;;4957442;28;20039;-91
2022/10/15 04:29:15;;;;;;;0.00;0.00;;;;;;;;;;4973725;28;20045;-91
2022/10/15 04:31:41;;;;;;;0.00;0.00;;;;;;;;;;4958124;28;20038;-91
2022/10/15 04:34:07;;;;;;;0.00;0.00;;;;;;;;;;4973703;28;20046;-89
2022/10/15 04:36:33;;;;;;;0.00;0.00;;;;;;;;;;4973676;28;20050;-88
2022/10/15 04:38:59;;;;;;;0.45;0.00;;;;;;;;;;4957945;28;20149;-90
2022/10/15 04:41:25;;;;;;;0.00;0.00;;;;;;;;;;4973838;28;20053;-90
2022/10/15 04:43:51;;;;;;;0.22;0.10;;;;;;;;;;4957416;28;20129;-90
2022/10/15 04:46:18;;;;;;;0.00;0.00;;;;;;;;;;4973559;28;20122;-90
2022/10/15 04:48:44;;;;;;;1.85;0.20;;;;;;;;;;4973743;28;20062;-90
2022/10/15 04:51:11;;;;;;;0.00;0.00;;;;;;;;;;4973550;28;20498;-90
2022/10/15 04:53:37;;;;;;;0.00;0.00;;;;;;;;;;4973327;28;20042;-89
2022/10/15 04:56:04;;;;;;;0.00;0.00;;;;;;;;;;4973566;28;20066;-92
2022/10/15 04:58:31;;;;;;;0.00;0.00;;;;;;;;;;4958176;28;20050;-91
2022/10/15 05:01:04;;;;;;;0.35;0.00;;;;;;;;;;4977310;28;20513;-93
2022/10/15 05:03:30;;;;;;;0.00;0.00;;;;;;;;;;4960901;28;20039;-89
2022/10/15 05:06:20;;;;;;;0.00;0.00;;;;;;;;;;4977229;28;20494;-89
2022/10/15 05:08:46;;;;;;;0.00;0.00;;;;;;;;;;4953599;28;20047;-90
2022/10/15 05:11:14;;;;;;;0.00;0.00;;;;;;;;;;4977121;28;20502;-89
2022/10/15 05:13:41;;;;;;;0.00;0.00;;;;;;;;;;4976945;28;20053;-90
2022/10/15 05:16:28;;;;;;;0.15;0.03;;;;;;;;;;4977046;28;20054;-91
2022/10/15 05:18:58;;;;;;;0.00;0.00;;;;;;;;;;4976992;28;20065;-90
2022/10/15 05:21:24;;;;;;;0.00;0.00;;;;;;;;;;4976827;28;20050;-89
2022/10/15 05:23:51;;;;;;;0.20;0.20;;;;;;;;;;4960817;28;20133;-90
2022/10/15 05:26:18;;;;;;;0.00;0.00;;;;;;;;;;4976895;28;20090;-91
2022/10/15 05:28:44;;;;;;;0.00;0.00;;;;;;;;;;4977006;28;20094;-91
2022/10/15 05:31:15;;;;;;;0.00;0.00;;;;;;;;;;4961026;28;20057;-91
2022/10/15 05:33:41;;;;;;;0.00;0.00;;;;;;;;;;4976871;28;20057;-91
2022/10/15 05:36:08;;;;;;;0.00;0.00;;;;;;;;;;4976847;28;20402;-87
2022/10/15 05:38:34;;;;;;;0.00;0.00;;;;;;;;;;4960752;28;20482;-92
2022/10/15 05:41:00;;;;;;;0.00;0.00;;;;;;;;;;4976769;28;20046;-91
2022/10/15 05:43:26;;;;;;;0.00;0.00;;;;;;;;;;4976823;28;20403;-90
2022/10/15 05:45:55;;;;;;;0.00;0.00;;;;;;;;;;4976573;28;20132;-91
2022/10/15 05:48:21;;;;;;;0.00;0.00;;;;;;;;;;4976497;28;20097;-92
2022/10/15 05:50:47;;;;;;;0.00;0.00;;;;;;;;;;4976796;28;20043;-90
2022/10/15 05:53:13;;;;;;;0.00;0.00;;;;;;;;;;4976109;28;20061;-89
2022/10/15 05:55:39;;;;;;;0.00;0.00;;;;;;;;;;4976305;28;20514;-91
2022/10/15 05:58:05;;;;;;;0.00;0.00;;;;;;;;;;4975993;28;20042;-91
2022/10/15 06:00:32;;;;;;;0.00;0.00;;;;;;;;;;4975765;28;20058;-91
2022/10/15 06:03:01;;;;;;;0.00;0.00;;;;;;;;;;4976152;28;20043;-90
2022/10/15 06:05:27;;;;;;;0.00;0.00;;;;;;;;;;4959548;28;20043;-93
2022/10/15 06:07:53;;;;;;;0.00;0.00;;;;;;;;;;4975970;28;20039;-90
2022/10/15 06:10:19;;;;;;;0.00;0.00;;;;;;;;;;4975430;28;20042;-92
2022/10/15 06:12:49;;;;;;;0.00;0.00;;;;;;;;;;4975366;28;20043;-91
2022/10/15 06:15:15;;;;;;;0.00;0.00;;;;;;;;;;4976003;28;20054;-90
2022/10/15 06:17:44;;;;;;;0.20;0.00;;;;;;;;;;4975496;28;20050;-91
2022/10/15 06:20:10;;;;;;;0.00;0.00;;;;;;;;;;4975719;28;20130;-91
2022/10/15 06:22:36;;;;;;;0.00;0.00;;;;;;;;;;4959708;28;20161;-92
2022/10/15 06:25:02;;;;;;;0.00;0.00;;;;;;;;;;4975319;28;20133;-91
2022/10/15 06:27:29;;;;;;;0.00;0.00;;;;;;;;;;4975398;28;20501;-92
2022/10/15 06:29:55;;;;;;;0.00;0.00;;;;;;;;;;4975423;28;20039;-91
2022/10/15 06:32:21;;;;;;;0.00;0.00;;;;;;;;;;4975406;28;20092;-92
2022/10/15 06:34:47;;;;;;;0.00;0.00;;;;;;;;;;4975501;28;20384;-92
2022/10/15 06:37:13;;;;;;;0.00;0.00;;;;;;;;;;4959532;28;20137;-91
2022/10/15 06:39:42;;;;;;;0.00;0.00;;;;;;;;;;4975284;28;20042;-91
2022/10/15 06:42:08;;;;;;;0.00;0.00;;;;;;;;;;4959220;28;20038;-92
2022/10/15 06:44:34;;;;;;;0.00;0.00;;;;;;;;;;4975406;28;20050;-91
2022/10/15 06:47:00;;;;;;;0.00;0.00;;;;;;;;;;4961327;28;20086;-90
2022/10/15 06:49:26;;;;;;;0.00;0.00;;;;;;;;;;4978984;28;20441;-91
2022/10/15 06:51:51;;;;;;;0.00;0.00;;;;;;;;;;4985963;28;20121;-90
2022/10/15 06:54:17;;;;;;;0.00;0.00;;;;;;;;;;4962362;28;20486;-90
2022/10/15 06:56:43;;;;;;;0.00;0.00;;;;;;;;;;4972053;28;20046;-91
2022/10/15 06:59:09;;;;;;;0.00;0.00;;;;;;;;;;4984478;28;20050;-89
2022/10/15 07:01:35;;;;;;;0.00;0.00;;;;;;;;;;4986027;28;20049;-92
2022/10/15 07:04:01;;;;;;;0.00;0.00;;;;;;;;;;4993636;28;20039;-90
2022/10/15 07:06:27;;;;;;;0.00;0.00;;;;;;;;;;4969936;28;20039;-92
2022/10/15 07:08:53;;;;;;;0.10;0.00;;;;;;;;;;4963316;28;20042;-94
2022/10/15 07:11:19;;;;;;;0.00;0.00;;;;;;;;;;4961098;28;20221;-87
2022/10/15 07:13:45;;;;;;;0.00;0.00;;;;;;;;;;4970058;28;20042;-93
2022/10/15 07:16:12;;;;;;;0.00;0.00;;;;;;;;;;4984498;28;20050;-95
2022/10/15 07:18:38;;;;;;;0.00;0.00;;;;;;;;;;4992214;28;20050;-93
2022/10/15 07:21:05;;;;;;;0.00;0.00;;;;;;;;;;4972592;28;20042;-93
2022/10/15 07:23:31;;;;;;;0.00;0.00;;;;;;;;;;4986108;28;20046;-94
2022/10/15 07:25:57;;;;;;;0.00;0.00;;;;;;;;;;4975222;28;20049;-92
2022/10/15 07:28:23;;;;;;;0.00;0.00;;;;;;;;;;4976554;28;20413;-93
2022/10/15 07:30:50;;;;;;;0.00;0.00;;;;;;;;;;4991554;28;20034;-93
2022/10/15 07:33:16;;;;;;;0.00;0.00;;;;;;;;;;4975519;28;20035;-92
2022/10/15 07:35:44;;;;;;;0.00;0.00;;;;;;;;;;4992276;28;20045;-92
2022/10/15 07:38:13;;;;;;;0.00;0.00;;;;;;;;;;4991111;28;20038;-92
2022/10/15 07:40:42;;;;;;;0.00;0.00;;;;;;;;;;4989349;28;20441;-92
2022/10/15 07:43:08;;;;;;;0.00;0.00;;;;;;;;;;4963467;28;20548;-93
2022/10/15 07:45:34;;;;;;;0.00;0.00;;;;;;;;;;4982260;28;20070;-90
2022/10/15 07:48:00;;;;;;;0.00;0.00;;;;;;;;;;4981548;28;20065;-91
2022/10/15 07:50:26;;;;;;;0.00;0.00;;;;;;;;;;4978770;28;20413;-94
2022/10/15 07:52:53;;;;;;;0.00;0.00;;;;;;;;;;4980226;28;20062;-92
2022/10/15 07:55:19;;;;;;;0.00;0.00;;;;;;;;;;4978799;28;20141;-90
2022/10/15 07:57:45;;;;;;;0.00;0.00;;;;;;;;;;4960249;28;20046;-91
2022/10/15 08:00:11;;;;;;;0.00;0.00;;;;;;;;;;4982137;28;20552;-92
2022/10/15 08:02:37;;;;;;;0.00;0.00;;;;;;;;;;4963585;28;20074;-94
2022/10/15 08:05:03;;;;;;;0.00;0.00;;;;;;;;;;4964114;28;20498;-91
2022/10/15 08:07:29;;;;;;;0.00;0.00;;;;;;;;;;4976679;28;20042;-94
2022/10/15 08:09:55;;;;;;;0.00;0.00;;;;;;;;;;4984443;28;20038;-89
2022/10/15 08:12:21;;;;;;;0.00;0.00;;;;;;;;;;4971704;28;20042;-83
2022/10/15 08:14:47;;;;;;;0.00;0.00;;;;;;;;;;4989098;28;20074;-91
2022/10/15 08:17:13;;;;;;;0.00;0.00;;;;;;;;;;4966448;28;20054;-93
2022/10/15 08:19:41;;;;;;;0.00;0.00;;;;;;;;;;4983569;28;20077;-93
2022/10/15 08:22:07;;;;;;;0.00;0.00;;;;;;;;;;4964810;28;20050;-93
2022/10/15 08:29:45;;;;;;;0.17;0.00;;;;;;;;;;5012085;28;20038;-92
2022/10/15 08:32:19;;;;;;;0.10;0.10;;;;;;;;;;4998557;28;20474;-92
2022/10/15 08:41:48;;;;;;;0.00;0.00;;;;;;;;;;4934072;29;20492;-87
2022/10/15 08:45:06;;;;;;;0.00;0.00;;;;;;;;;;4944278;29;20044;-87
2022/10/15 08:47:41;;;;;;;0.00;0.00;;;;;;;;;;4939234;29;20075;-95
2022/10/15 08:50:59;;;;;;;0.00;0.00;;;;;;;;;;5015486;28;20050;-93
2022/10/15 08:53:35;;;;;;;0.00;0.00;;;;;;;;;;5014912;28;20045;-91
2022/10/15 08:56:24;;;;;;;;;;;;;;;;;;;;;
2022/10/15 08:59:08;;;;;;;0.20;0.17;;;;;;;;;;5001177;28;20121;-93
2022/10/15 09:01:44;;;;;;;0.10;0.00;;;;;;;;;;5004707;28;20073;-89
2022/10/15 09:07:52;;;;;;;0.00;0.00;;;;;;;;;;4957781;29;20044;-92
2022/10/15 09:35:34;;;;;;;0.00;0.00;;;;;;;;;;1115817;22;20430;-85
2022/10/15 09:38:00;;;;;;;0.00;0.00;;;;;;;;;;4945707;28;20503;-92
2022/10/15 09:40:29;;;;;;;0.00;0.00;;;;;;;;;;4947466;28;20038;-92
2022/10/15 09:42:57;;;;;;;0.00;0.00;;;;;;;;;;4962461;28;20137;-94
2022/10/15 09:45:23;;;;;;;0.00;0.00;;;;;;;;;;4947063;28;20066;-93
2022/10/15 09:47:49;;;;;;;0.00;0.00;;;;;;;;;;4968285;28;20262;-93
2022/10/15 09:50:15;;;;;;;0.00;0.00;;;;;;;;;;4961676;28;20038;-91
2022/10/15 09:53:00;;;;;;;0.00;0.00;;;;;;;;;;4945109;28;20045;-93
2022/10/15 09:55:45;;;;;;;0.00;0.00;;;;;;;;;;4961583;28;20047;-91
2022/10/15 09:58:17;;;;;;;0.22;0.05;;;;;;;;;;4962746;28;20125;-93
2022/10/15 10:00:55;;;;;;;0.00;0.00;;;;;;;;;;4961520;28;20073;-90
2022/10/15 10:03:22;;;;;;;0.00;0.00;;;;;;;;;;4962496;28;20561;-86
2022/10/15 10:05:48;;;;;;;3.20;0.52;;;;;;;;;;4960525;28;20041;-94
2022/10/15 10:08:22;;;;;;;0.00;0.00;;;;;;;;;;4960115;28;20455;-93
2022/10/15 10:10:55;;;;;;;0.00;0.00;;;;;;;;;;4960418;28;20039;-91
2022/10/15 10:13:28;;;;;;;0.00;0.00;;;;;;;;;;4959994;28;20110;-92
2022/10/15 10:15:54;;;;;;;0.00;0.00;;;;;;;;;;4937579;29;20402;-94
2022/10/15 10:18:24;;;;;;;0.00;0.00;;;;;;;;;;4948049;28;20039;-84
2022/10/15 10:21:00;;;;;;;0.00;0.00;;;;;;;;;;4964006;28;20046;-92
2022/10/15 10:23:36;;;;;;;0.00;0.00;;;;;;;;;;4966485;28;20065;-90
2022/10/15 10:26:04;;;;;;;0.00;0.00;;;;;;;;;;4978920;28;20041;-90
2022/10/15 10:28:36;;;;;;;0.00;0.00;;;;;;;;;;4959333;28;20499;-92
2022/10/15 10:31:04;;;;;;;0.00;0.00;;;;;;;;;;4943633;28;20043;-91
2022/10/15 10:33:35;;;;;;;0.00;0.00;;;;;;;;;;4951553;28;20114;-91
2022/10/15 10:36:01;;;;;;;0.00;0.00;;;;;;;;;;4964547;28;20058;-91
2022/10/15 10:38:37;;;;;;;0.00;0.00;;;;;;;;;;4995476;28;20045;-92
2022/10/15 10:41:07;;;;;;;0.00;0.00;;;;;;;;;;4940244;29;20043;-90
2022/10/15 10:43:40;;;;;;;0.00;0.00;;;;;;;;;;4955853;28;20075;-92
2022/10/15 10:46:13;;;;;;;0.00;0.00;;;;;;;;;;4956394;29;20039;-92
2022/10/15 10:48:39;;;;;;;0.00;0.00;;;;;;;;;;4972838;28;20046;-90
2022/10/15 10:51:07;;;;;;;0.00;0.00;;;;;;;;;;4994766;28;20141;-92
2022/10/15 10:53:34;;;;;;;0.00;0.00;;;;;;;;;;4978299;28;20049;-93
2022/10/15 10:56:01;;;;;;;0.00;0.00;;;;;;;;;;4993875;28;20076;-93
2022/10/15 10:58:29;;;;;;;0.00;0.00;;;;;;;;;;4994561;28;20042;-92
2022/10/15 11:00:55;;;;;;;0.10;0.00;;;;;;;;;;4994747;28;20042;-91
2022/10/15 11:03:27;;;;;;;0.00;0.00;;;;;;;;;;4994459;28;20042;-91
2022/10/15 11:05:59;;;;;;;0.00;0.00;;;;;;;;;;4978290;28;20451;-93
2022/10/15 11:08:29;;;;;;;0.00;0.00;;;;;;;;;;4994453;28;20048;-92
2022/10/15 11:11:14;;;;;;;0.00;0.00;;;;;;;;;;4994141;28;20118;-88
2022/10/15 11:13:59;;;;;;;0.00;0.00;;;;;;;;;;4978190;28;20058;-89
2022/10/15 11:16:43;;;;;;;0.00;0.00;;;;;;;;;;4976444;28;20035;-92
2022/10/15 11:19:15;;;;;;;0.00;0.00;;;;;;;;;;4974614;28;20490;-93
2022/10/15 11:22:03;;;;;;;0.00;0.00;;;;;;;;;;4974777;28;20047;-94
2022/10/15 11:24:42;;;;;;;0.00;0.00;;;;;;;;;;4974478;28;20098;-85
2022/10/15 11:27:14;;;;;;;0.00;0.00;;;;;;;;;;4974801;28;20039;-90
2022/10/15 11:29:43;;;;;;;0.00;0.00;;;;;;;;;;4974639;28;20119;-90
2022/10/15 11:32:17;;;;;;;0.00;0.00;;;;;;;;;;4958662;28;20438;-92
2022/10/15 11:34:50;;;;;;;0.00;0.00;;;;;;;;;;4958101;28;20043;-91
2022/10/15 11:37:40;;;;;;;0.00;0.00;;;;;;;;;;4977583;28;20066;-90
2022/10/15 11:40:06;;;;;;;0.00;0.00;;;;;;;;;;4951649;28;20052;-93
2022/10/15 11:42:40;;;;;;;0.00;0.00;;;;;;;;;;4968076;28;20042;-94
2022/10/15 11:45:15;;;;;;;0.00;0.00;;;;;;;;;;4980361;28;20046;-93
2022/10/15 11:47:53;;;;;;;0.00;0.00;;;;;;;;;;4977717;28;20045;-92
2022/10/15 11:50:36;;;;;;;0.00;0.00;;;;;;;;;;4979321;28;20038;-92
2022/10/15 11:53:21;;;;;;;0.00;0.00;;;;;;;;;;4981484;28;20075;-93
2022/10/15 11:55:56;;;;;;;0.00;0.00;;;;;;;;;;4963864;28;20129;-93
2022/10/15 11:58:28;;;;;;;0.00;0.00;;;;;;;;;;4980944;28;20049;-93
2022/10/15 12:00:58;;;;;;;0.00;0.00;;;;;;;;;;4979330;28;20045;-91
2022/10/15 12:03:26;;;;;;;0.52;0.30;;;;;;;;;;4980320;28;20553;-91
2022/10/15 12:06:08;;;;;;;0.05;0.00;;;;;;;;;;4963350;28;20038;-91
2022/10/15 12:08:35;;;;;;;0.00;0.00;;;;;;;;;;4962710;28;20042;-92
2022/10/15 12:11:04;;;;;;;0.38;0.00;;;;;;;;;;4961388;28;20038;-92
2022/10/15 12:13:38;;;;;;;0.00;0.00;;;;;;;;;;4977458;28;20044;-91
2022/10/15 12:16:23;;;;;;;0.00;0.00;;;;;;;;;;4961376;28;20039;-92
2022/10/15 12:18:51;;;;;;;0.00;0.00;;;;;;;;;;4961349;28;20046;-94
2022/10/15 12:21:27;;;;;;;0.00;0.00;;;;;;;;;;4977355;28;20097;-91
2022/10/15 12:23:53;;;;;;;0.00;0.00;;;;;;;;;;4971935;28;20046;-92
2022/10/15 12:28:56;;;;;;;0.00;0.00;;;;;;;;;;5157713;23;20468;-82
2022/10/15 12:31:23;;;;;;;0.00;0.00;;;;;;;;;;4975551;28;20366;-82
2022/10/15 12:33:56;;;;;;;0.00;0.00;;;;;;;;;;4959580;28;20209;-82
2022/10/15 12:36:29;;;;;;;0.00;0.00;;;;;;;;;;4975813;28;20053;-82
2022/10/15 12:39:06;;;;;;;0.00;0.00;;;;;;;;;;4964588;28;20078;-83
2022/10/15 12:41:37;;;;;;;0.00;0.00;;;;;;;;;;4956397;28;20055;-82
2022/10/15 12:44:05;;;;;;;0.00;0.00;;;;;;;;;;4956398;28;20556;-82
2022/10/15 12:46:36;;;;;;;0.00;0.00;;;;;;;;;;4956322;28;20078;-82
2022/10/15 12:49:22;;;;;;;0.00;0.00;;;;;;;;;;4955263;28;20043;-81
2022/10/15 12:51:48;;;;;;;;;;;;;;;;;;4956763;28;20552;-82
2022/10/15 12:54:14;;;;;;;;;;;;;;;;;;4956821;28;19918;-82
2022/10/15 12:56:40;;;;;;;0.00;0.00;;;;;;;;;;4956105;28;19925;-82
2022/10/15 12:59:30;;;;;;;0.00;0.00;;;;;;;;;;4940235;28;20039;-82
2022/10/15 13:01:56;;;;;;;0.47;0.15;;;;;;;;;;4956311;28;20043;-82
2022/10/15 13:04:22;;;;;;;0.00;0.00;;;;;;;;;;4955877;28;20051;-82
2022/10/15 13:06:48;;;;;;;0.00;0.00;;;;;;;;;;4973534;28;20034;-82
2022/10/15 13:09:15;;;;;;;0.00;0.00;;;;;;;;;;4956352;28;20157;-82
2022/10/15 13:11:41;;;;;;;0.00;0.00;;;;;;;;;;4939893;28;20042;-81
2022/10/15 13:14:13;;;;;;;0.00;0.00;;;;;;;;;;4956145;28;20410;-82
2022/10/15 13:16:43;;;;;;;0.00;0.00;;;;;;;;;;4973201;28;20086;-82
2022/10/15 13:19:19;;;;;;;0.00;0.00;;;;;;;;;;4955897;28;20070;-82
2022/10/15 13:21:56;;;;;;;0.00;0.00;;;;;;;;;;4959103;28;20050;-82
2022/10/15 13:24:23;;;;;;;0.00;0.00;;;;;;;;;;4959427;28;20066;-82
2022/10/15 13:26:49;;;;;;;0.00;0.00;;;;;;;;;;4959493;28;20117;-82
2022/10/15 13:29:17;;;;;;;0.28;0.17;;;;;;;;;;4955811;28;20498;-82
2022/10/15 13:31:47;;;;;;;0.00;0.00;;;;;;;;;;4956235;29;20050;-82
2022/10/15 13:34:16;;;;;;;0.00;0.00;;;;;;;;;;4956413;29;20043;-82
2022/10/15 13:36:44;;;;;;;0.00;0.00;;;;;;;;;;4957421;29;20406;-82
2022/10/15 13:39:26;;;;;;;0.00;0.00;;;;;;;;;;4955762;28;20520;-82
2022/10/15 13:41:54;;;;;;;0.00;0.00;;;;;;;;;;4956986;29;20506;-82
2022/10/15 13:44:23;;;;;;;0.00;0.00;;;;;;;;;;4955866;29;20094;-82
2022/10/15 13:46:50;;;;;;;0.00;0.00;;;;;;;;;;4955746;29;20390;-81
2022/10/15 13:49:17;;;;;;;0.00;0.00;;;;;;;;;;4955865;28;20043;-82
2022/10/15 13:51:44;;;;;;;0.00;0.00;;;;;;;;;;4955664;29;20471;-81
2022/10/15 13:54:11;;;;;;;0.80;0.10;;;;;;;;;;4955958;29;20505;-82
2022/10/15 13:56:41;;;;;;;0.00;0.00;;;;;;;;;;4955365;29;20043;-82
2022/10/15 13:59:14;;;;;;;0.00;0.00;;;;;;;;;;4954872;28;20054;-82
2022/10/15 14:01:45;;;;;;;0.00;0.00;;;;;;;;;;4955438;29;20517;-82
2022/10/15 14:04:16;;;;;;;0.00;0.00;;;;;;;;;;4939636;29;20102;-81
2022/10/15 14:06:51;;;;;;;0.00;0.00;;;;;;;;;;4955687;29;20043;-82
2022/10/15 14:09:23;;;;;;;0.00;0.00;;;;;;;;;;4955526;28;20043;-82
2022/10/15 14:11:50;;;;;;;0.00;0.00;;;;;;;;;;4956573;29;20047;-82
2022/10/15 14:14:29;;;;;;;0.00;0.00;;;;;;;;;;4955720;29;20127;-81
2022/10/15 14:16:56;;;;;;;0.00;0.00;;;;;;;;;;4954929;29;20050;-82
2022/10/15 14:19:28;;;;;;;0.00;0.00;;;;;;;;;;4956793;28;20043;-82
2022/10/15 14:21:54;;;;;;;0.00;0.00;;;;;;;;;;4956398;29;20047;-82
2022/10/15 14:24:21;;;;;;;0.00;0.00;;;;;;;;;;4955281;29;20523;-82
2022/10/15 14:26:48;;;;;;;0.00;0.00;;;;;;;;;;4939302;29;20070;-82
2022/10/15 14:29:34;;;;;;;0.00;0.00;;;;;;;;;;4955068;28;20134;-82
2022/10/15 14:32:00;;;;;;;0.00;0.00;;;;;;;;;;4955154;28;20043;-82
2022/10/15 14:34:29;;;;;;;0.00;0.00;;;;;;;;;;4955078;29;20383;-82
2022/10/15 14:36:56;;;;;;;0.00;0.00;;;;;;;;;;4938812;29;20088;-82
2022/10/15 14:39:40;;;;;;;0.00;0.00;;;;;;;;;;4955076;28;20051;-82
2022/10/15 14:42:07;;;;;;;0.00;0.00;;;;;;;;;;4955021;29;20051;-82
2022/10/15 14:44:46;;;;;;;0.00;0.00;;;;;;;;;;4955018;29;20122;-82
2022/10/15 14:47:23;;;;;;;0.20;0.00;;;;;;;;;;4956104;29;20047;-82
2022/10/15 14:49:50;;;;;;;0.00;0.00;;;;;;;;;;4939199;29;20082;-82
2022/10/15 14:52:19;;;;;;;0.00;0.00;;;;;;;;;;4955202;29;20134;-82
2022/10/15 14:54:48;;;;;;;0.00;0.00;;;;;;;;;;4955035;29;20051;-82
2022/10/15 14:57:26;;;;;;;0.00;0.00;;;;;;;;;;4956267;29;20051;-82
2022/10/15 14:59:54;;;;;;;0.00;0.00;;;;;;;;;;4956188;28;20039;-82
2022/10/15 15:02:22;;;;;;;0.00;0.00;;;;;;;;;;4955015;29;20132;-82
2022/10/15 15:05:07;;;;;;;0.00;0.00;;;;;;;;;;4934189;29;20048;-82
2022/10/15 15:07:33;;;;;;;0.00;0.00;;;;;;;;;;4936852;29;20040;-82
2022/10/15 15:09:59;;;;;;;0.00;0.00;;;;;;;;;;4942454;29;20047;-82
2022/10/15 15:12:26;;;;;;;0.00;0.00;;;;;;;;;;4954728;29;20124;-83
2022/10/15 15:14:52;;;;;;;0.00;0.00;;;;;;;;;;4954804;29;20039;-82
2022/10/15 15:17:22;;;;;;;0.00;0.00;;;;;;;;;;4954210;29;20058;-82
2022/10/15 15:19:49;;;;;;;0.00;0.00;;;;;;;;;;4949787;28;20051;-82
2022/10/15 15:22:17;;;;;;;0.00;0.00;;;;;;;;;;4950457;29;20113;-82
2022/10/15 15:24:43;;;;;;;0.00;0.00;;;;;;;;;;4954271;29;20055;-82
2022/10/15 15:27:20;;;;;;;0.00;0.00;;;;;;;;;;4954432;29;20043;-82
2022/10/15 15:29:46;;;;;;;0.00;0.00;;;;;;;;;;4938206;29;20063;-82
2022/10/15 15:32:12;;;;;;;0.00;0.00;;;;;;;;;;4955571;29;20101;-82
2022/10/15 15:34:39;;;;;;;0.00;0.00;;;;;;;;;;4954408;29;20115;-82
2022/10/15 15:37:11;;;;;;;0.00;0.00;;;;;;;;;;4938071;29;20043;-82
2022/10/15 15:39:37;;;;;;;0.00;0.00;;;;;;;;;;4954444;28;20054;-82
2022/10/15 15:42:03;;;;;;;0.00;0.00;;;;;;;;;;4953697;28;20043;-82
2022/10/15 15:44:29;;;;;;;0.00;0.00;;;;;;;;;;4954179;29;20383;-82